Dillon, CO (80435)

7:55 AM MDT on June 26, 2017 (GMT -0600)
Dillon Valley | | Change Station
Active Advisory: Fire Weather Watch Active Notice: Public Information Statement

Elev 9009 ft 39.64 °N, 106.05 °W | Updated 7 seconds ago

Partly Cloudy
Partly Cloudy
49.3 °F
Feels Like 49 °F
N
0.0
Wind Variable Wind from NNW
Gusts 0.0 mph

Today
High -- | Low -- °F
--% Chance of Precip.
Yesterday
High -- | Low -- °F
Precip. -- in
Pressure 30.05 in
Visibility 10.0 miles
Clouds Clear
Windchill 49 °F
Dew Point 32 °F
Humidity 52%
Rainfall 0.00 in
Snow Depth Not available.
5:38 AM 8:35 PM
Waxing Crescent, 9% visible
METAR KLXV 261353Z AUTO 00000KT 10SM CLR 09/05 A3058 RMK AO2 SLP176 T00940050
Pressure 30.05 in
Visibility 10.0 miles
Clouds Clear
Windchill 49 °F
Dew Point 32 °F
Humidity 52%
Rainfall 0.00 in
Snow Depth Not available.
5:38 AM 8:35 PM
Waxing Crescent, 9% visible
METAR KLXV 261353Z AUTO 00000KT 10SM CLR 09/05 A3058 RMK AO2 SLP176 T00940050

Get Your Daily Forecast Email!

Thanks for signing up!

Be on the lookout for a verification email in your inbox.

You'll start receiving severe weather alerts in your inbox..

×

10-Day Weather Forecast

Almanac

Astronomy

Jun. 26, 2017 Rise Set
Actual Time
Civil Twilight
Nautical Twilight
Astronomical Twilight
Moon
Length of Visible Light
Length of Day
Tomorrow will be .
, % of the Moon is Illuminated

Today's Extremes

State Highs State Lows

Community

WunderPhotos

Category 6

Welcome to Category 6. This is the collective home for Weather Underground's featured writeups by Dr. Jeff Masters (right), Bob Henson (left), Chris Burt, and other regular contributors.

Nearby

Air Quality

  Air Quality AQ Index Pollutant
Not available.

Snow Depth

Station Depth Elevation

Earthquake Activity

City Distance Mag. Time & Date
Minimum magnitude displayed is 2.5.

Coastal Water Temperatures

Place Temperature

Stations

Nearby Weather Stations

Station Location Temp. Windchill Dew Point Humidity Wind Precip. Elev Updated Type
                   

Watches & Warnings

Fire Weather Watch
Issued: 3:17 AM MDT Jun. 26, 2017 – National Weather Service

... Fire Weather Watch in effect from Tuesday afternoon through
Tuesday evening for wind and low relative humidity for the
mountain valleys of central and north central Colorado...

The National Weather Service in Denver has issued a Fire Weather
Watch for wind and low relative humidity... which is in effect
from Tuesday afternoon through Tuesday evening.

* Affected area... fire weather zones 211... 213 and 214.

* Timing... Tuesday... noon through 9 PM.

* Winds... west 10 to 20 mph with gusts up to 30 mph.

* Relative humidity... as low as 12 percent.

* Impacts... gusty winds and low relative humidity will result in
critical fire weather conditions.

Precautionary/preparedness actions...

A Fire Weather Watch means that critical fire weather conditions
are forecast to occur. Listen for later forecasts and possible
red flag warnings.